Ossett, United Kingdom
Current Conditions -  °F | °C
As of 10:20 AM on Monday 20 Oct 2014 (Local Time) from EGNM Reporting Station
Light Rain Light Rain  
Wind Chill: 10°   Ceiling: Unl
Heat Index: 10°   Visibility: 4mi
Dew Point: 10°   Wind: 13mph
Humidity: 100%   Direction: 260°W
Pressure: 29.85"   Gusts: NA
Location:  53.68°N, 1.58°W
Report Text: EGNM 200920Z 26011KT 230V300 6000 -RA FEW005 SCT014 10/10 Q1011
Loading
Personal Weather Stations






























Interactive Weather Map
Tropical Storm Tracking
New forecast layout! Learn more

10-Day Weather Forecast

Advertisements
Track Severe Weather on mobile